sensor_id;sensor_type;location;lat;lon;timestamp;temperature;humidity
57664;DHT22;43493;53.098;6.064;2024-02-28T00:01:53;3.70;99.90
57664;DHT22;43493;53.098;6.064;2024-02-28T00:04:19;3.70;99.90
57664;DHT22;43493;53.098;6.064;2024-02-28T00:06:45;3.70;99.90
57664;DHT22;43493;53.098;6.064;2024-02-28T00:09:12;3.70;99.90
57664;DHT22;43493;53.098;6.064;2024-02-28T00:11:45;3.70;99.90
57664;DHT22;43493;53.098;6.064;2024-02-28T00:14:15;3.70;99.90
57664;DHT22;43493;53.098;6.064;2024-02-28T00:16:42;3.70;99.90
57664;DHT22;43493;53.098;6.064;2024-02-28T00:19:08;3.70;99.90
57664;DHT22;43493;53.098;6.064;2024-02-28T00:21:34;3.70;99.90
57664;DHT22;43493;53.098;6.064;2024-02-28T00:24:00;3.80;99.90
57664;DHT22;43493;53.098;6.064;2024-02-28T00:26:25;3.70;99.90
57664;DHT22;43493;53.098;6.064;2024-02-28T00:28:51;3.70;99.90
57664;DHT22;43493;53.098;6.064;2024-02-28T00:31:17;3.70;99.90
57664;DHT22;43493;53.098;6.064;2024-02-28T00:33:42;3.70;99.90
57664;DHT22;43493;53.098;6.064;2024-02-28T00:36:08;3.70;99.90
57664;DHT22;43493;53.098;6.064;2024-02-28T00:38:34;3.70;99.90
57664;DHT22;43493;53.098;6.064;2024-02-28T00:41:00;3.70;99.90
57664;DHT22;43493;53.098;6.064;2024-02-28T00:43:25;3.60;99.90
57664;DHT22;43493;53.098;6.064;2024-02-28T00:45:51;3.60;99.90
57664;DHT22;43493;53.098;6.064;2024-02-28T00:48:16;3.60;99.90
57664;DHT22;43493;53.098;6.064;2024-02-28T00:50:42;3.60;99.90
57664;DHT22;43493;53.098;6.064;2024-02-28T00:53:08;3.60;99.90
57664;DHT22;43493;53.098;6.064;2024-02-28T00:55:33;3.60;99.90
57664;DHT22;43493;53.098;6.064;2024-02-28T00:57:59;3.70;99.90
57664;DHT22;43493;53.098;6.064;2024-02-28T01:00:25;3.60;99.90
57664;DHT22;43493;53.098;6.064;2024-02-28T01:02:50;3.70;99.90
57664;DHT22;43493;53.098;6.064;2024-02-28T01:05:16;3.70;99.90
57664;DHT22;43493;53.098;6.064;2024-02-28T01:07:45;3.60;99.90
57664;DHT22;43493;53.098;6.064;2024-02-28T01:10:10;3.70;99.90
57664;DHT22;43493;53.098;6.064;2024-02-28T01:12:37;3.70;99.90
57664;DHT22;43493;53.098;6.064;2024-02-28T01:15:03;3.70;99.90
57664;DHT22;43493;53.098;6.064;2024-02-28T01:17:29;3.70;99.90
57664;DHT22;43493;53.098;6.064;2024-02-28T01:19:54;3.70;99.90
57664;DHT22;43493;53.098;6.064;2024-02-28T01:22:20;3.70;99.90
57664;DHT22;43493;53.098;6.064;2024-02-28T01:24:46;3.70;99.90
57664;DHT22;43493;53.098;6.064;2024-02-28T01:27:11;3.60;99.90
57664;DHT22;43493;53.098;6.064;2024-02-28T01:29:38;3.70;99.90
57664;DHT22;43493;53.098;6.064;2024-02-28T01:32:03;3.70;99.90
57664;DHT22;43493;53.098;6.064;2024-02-28T01:34:29;3.70;99.90
57664;DHT22;43493;53.098;6.064;2024-02-28T01:36:55;3.70;99.90
57664;DHT22;43493;53.098;6.064;2024-02-28T01:39:20;3.70;99.90
57664;DHT22;43493;53.098;6.064;2024-02-28T01:41:55;3.70;99.90
57664;DHT22;43493;53.098;6.064;2024-02-28T01:44:23;3.70;99.90
57664;DHT22;43493;53.098;6.064;2024-02-28T01:46:49;3.70;99.90
57664;DHT22;43493;53.098;6.064;2024-02-28T01:49:15;3.80;99.90
57664;DHT22;43493;53.098;6.064;2024-02-28T01:51:44;3.70;99.90
57664;DHT22;43493;53.098;6.064;2024-02-28T01:54:10;3.80;99.90
57664;DHT22;43493;53.098;6.064;2024-02-28T01:56:37;3.80;99.90
57664;DHT22;43493;53.098;6.064;2024-02-28T01:59:04;3.80;99.90
57664;DHT22;43493;53.098;6.064;2024-02-28T02:01:30;3.70;99.90
57664;DHT22;43493;53.098;6.064;2024-02-28T02:03:55;3.70;99.90
57664;DHT22;43493;53.098;6.064;2024-02-28T02:06:22;3.80;99.90
57664;DHT22;43493;53.098;6.064;2024-02-28T02:08:48;3.80;99.90
57664;DHT22;43493;53.098;6.064;2024-02-28T02:11:15;3.70;99.90
57664;DHT22;43493;53.098;6.064;2024-02-28T02:13:51;3.70;99.90
57664;DHT22;43493;53.098;6.064;2024-02-28T02:16:18;3.70;99.90
57664;DHT22;43493;53.098;6.064;2024-02-28T02:18:44;3.70;99.90
57664;DHT22;43493;53.098;6.064;2024-02-28T02:21:11;3.70;99.90
57664;DHT22;43493;53.098;6.064;2024-02-28T02:23:38;3.80;99.90
57664;DHT22;43493;53.098;6.064;2024-02-28T02:26:07;3.90;99.90
57664;DHT22;43493;53.098;6.064;2024-02-28T02:28:33;3.80;99.90
57664;DHT22;43493;53.098;6.064;2024-02-28T02:30:59;3.80;99.90
57664;DHT22;43493;53.098;6.064;2024-02-28T02:33:25;3.80;99.90
57664;DHT22;43493;53.098;6.064;2024-02-28T02:35:52;3.80;99.90
57664;DHT22;43493;53.098;6.064;2024-02-28T02:38:18;3.80;99.90
57664;DHT22;43493;53.098;6.064;2024-02-28T02:40:47;3.80;99.90
57664;DHT22;43493;53.098;6.064;2024-02-28T02:43:14;3.80;99.90
57664;DHT22;43493;53.098;6.064;2024-02-28T02:45:39;3.80;99.90
57664;DHT22;43493;53.098;6.064;2024-02-28T02:48:05;3.80;99.90
57664;DHT22;43493;53.098;6.064;2024-02-28T02:50:31;3.80;99.90
57664;DHT22;43493;53.098;6.064;2024-02-28T02:52:57;3.80;99.90
57664;DHT22;43493;53.098;6.064;2024-02-28T02:55:22;3.80;99.90
57664;DHT22;43493;53.098;6.064;2024-02-28T02:57:48;3.80;99.90
57664;DHT22;43493;53.098;6.064;2024-02-28T03:00:14;3.80;99.90
57664;DHT22;43493;53.098;6.064;2024-02-28T03:02:39;3.80;99.90
57664;DHT22;43493;53.098;6.064;2024-02-28T03:05:06;3.80;99.90
57664;DHT22;43493;53.098;6.064;2024-02-28T03:07:32;3.80;99.90
57664;DHT22;43493;53.098;6.064;2024-02-28T03:09:58;3.80;99.90
57664;DHT22;43493;53.098;6.064;2024-02-28T03:12:24;3.80;99.90
57664;DHT22;43493;53.098;6.064;2024-02-28T03:14:50;3.90;99.90
57664;DHT22;43493;53.098;6.064;2024-02-28T03:17:16;3.80;99.90
57664;DHT22;43493;53.098;6.064;2024-02-28T03:19:42;3.80;99.90
57664;DHT22;43493;53.098;6.064;2024-02-28T03:22:07;3.80;99.90
57664;DHT22;43493;53.098;6.064;2024-02-28T03:24:33;3.90;99.90
57664;DHT22;43493;53.098;6.064;2024-02-28T03:27:02;3.90;99.90
57664;DHT22;43493;53.098;6.064;2024-02-28T03:29:28;3.90;99.90
57664;DHT22;43493;53.098;6.064;2024-02-28T03:31:54;3.90;99.90
57664;DHT22;43493;53.098;6.064;2024-02-28T03:34:20;3.90;99.90
57664;DHT22;43493;53.098;6.064;2024-02-28T03:36:46;3.80;99.90
57664;DHT22;43493;53.098;6.064;2024-02-28T03:39:12;3.90;99.90
57664;DHT22;43493;53.098;6.064;2024-02-28T03:41:38;3.90;99.90
57664;DHT22;43493;53.098;6.064;2024-02-28T03:44:05;3.90;99.90
57664;DHT22;43493;53.098;6.064;2024-02-28T03:46:31;3.80;99.90
57664;DHT22;43493;53.098;6.064;2024-02-28T03:48:57;3.80;99.90
57664;DHT22;43493;53.098;6.064;2024-02-28T03:51:23;3.90;99.90
57664;DHT22;43493;53.098;6.064;2024-02-28T03:53:48;3.80;99.90
57664;DHT22;43493;53.098;6.064;2024-02-28T03:56:25;3.80;99.90
57664;DHT22;43493;53.098;6.064;2024-02-28T03:58:51;3.90;99.90
57664;DHT22;43493;53.098;6.064;2024-02-28T04:01:17;3.80;99.90
57664;DHT22;43493;53.098;6.064;2024-02-28T04:03:43;3.90;99.90
57664;DHT22;43493;53.098;6.064;2024-02-28T04:06:08;3.90;99.90
57664;DHT22;43493;53.098;6.064;2024-02-28T04:08:34;3.80;99.90
57664;DHT22;43493;53.098;6.064;2024-02-28T04:11:00;3.90;99.90
57664;DHT22;43493;53.098;6.064;2024-02-28T04:13:25;3.90;99.90
57664;DHT22;43493;53.098;6.064;2024-02-28T04:15:51;3.90;99.90
57664;DHT22;43493;53.098;6.064;2024-02-28T04:18:17;3.90;99.90
57664;DHT22;43493;53.098;6.064;2024-02-28T04:20:43;3.90;99.90
57664;DHT22;43493;53.098;6.064;2024-02-28T04:23:09;3.90;99.90
57664;DHT22;43493;53.098;6.064;2024-02-28T04:25:34;3.90;99.90
57664;DHT22;43493;53.098;6.064;2024-02-28T04:28:02;3.90;99.90
57664;DHT22;43493;53.098;6.064;2024-02-28T04:30:28;3.90;99.90
57664;DHT22;43493;53.098;6.064;2024-02-28T04:32:53;3.70;99.90
57664;DHT22;43493;53.098;6.064;2024-02-28T04:35:19;4.00;99.90
57664;DHT22;43493;53.098;6.064;2024-02-28T04:37:48;4.00;99.90
57664;DHT22;43493;53.098;6.064;2024-02-28T04:40:14;4.00;99.90
57664;DHT22;43493;53.098;6.064;2024-02-28T04:42:41;4.00;99.90
57664;DHT22;43493;53.098;6.064;2024-02-28T04:45:07;3.90;99.90
57664;DHT22;43493;53.098;6.064;2024-02-28T04:47:33;4.00;99.90
57664;DHT22;43493;53.098;6.064;2024-02-28T04:49:58;4.00;99.90
57664;DHT22;43493;53.098;6.064;2024-02-28T04:52:24;4.00;99.90
57664;DHT22;43493;53.098;6.064;2024-02-28T04:54:52;4.00;99.90
57664;DHT22;43493;53.098;6.064;2024-02-28T04:57:19;4.00;99.90
57664;DHT22;43493;53.098;6.064;2024-02-28T04:59:45;4.10;99.90
57664;DHT22;43493;53.098;6.064;2024-02-28T05:02:12;4.10;99.90
57664;DHT22;43493;53.098;6.064;2024-02-28T05:04:37;4.10;99.90
57664;DHT22;43493;53.098;6.064;2024-02-28T05:07:03;4.10;99.90
57664;DHT22;43493;53.098;6.064;2024-02-28T05:09:29;4.10;99.90
57664;DHT22;43493;53.098;6.064;2024-02-28T05:11:55;4.10;99.90
57664;DHT22;43493;53.098;6.064;2024-02-28T05:14:20;4.10;99.90
57664;DHT22;43493;53.098;6.064;2024-02-28T05:16:49;4.10;99.90
57664;DHT22;43493;53.098;6.064;2024-02-28T05:19:14;4.20;99.90
57664;DHT22;43493;53.098;6.064;2024-02-28T05:21:44;4.20;99.90
57664;DHT22;43493;53.098;6.064;2024-02-28T05:24:09;4.20;99.90
57664;DHT22;43493;53.098;6.064;2024-02-28T05:26:36;4.20;99.90
57664;DHT22;43493;53.098;6.064;2024-02-28T05:29:03;4.20;99.90
57664;DHT22;43493;53.098;6.064;2024-02-28T05:31:29;4.20;99.90
57664;DHT22;43493;53.098;6.064;2024-02-28T05:33:56;4.20;99.90
57664;DHT22;43493;53.098;6.064;2024-02-28T05:36:26;4.20;99.90
57664;DHT22;43493;53.098;6.064;2024-02-28T05:38:53;4.30;99.90
57664;DHT22;43493;53.098;6.064;2024-02-28T05:41:19;4.20;99.90
57664;DHT22;43493;53.098;6.064;2024-02-28T05:43:45;4.20;99.90
57664;DHT22;43493;53.098;6.064;2024-02-28T05:46:15;4.30;99.90
57664;DHT22;43493;53.098;6.064;2024-02-28T05:48:41;4.30;99.90
57664;DHT22;43493;53.098;6.064;2024-02-28T05:51:07;4.30;99.90
57664;DHT22;43493;53.098;6.064;2024-02-28T05:53:33;4.30;99.90
57664;DHT22;43493;53.098;6.064;2024-02-28T05:56:04;4.30;99.90
57664;DHT22;43493;53.098;6.064;2024-02-28T05:58:30;4.30;99.90
57664;DHT22;43493;53.098;6.064;2024-02-28T06:00:56;4.40;99.90
57664;DHT22;43493;53.098;6.064;2024-02-28T06:03:22;4.40;99.90
57664;DHT22;43493;53.098;6.064;2024-02-28T06:05:47;4.40;99.90
57664;DHT22;43493;53.098;6.064;2024-02-28T06:08:14;4.40;99.90
57664;DHT22;43493;53.098;6.064;2024-02-28T06:10:39;4.40;99.90
57664;DHT22;43493;53.098;6.064;2024-02-28T06:13:08;4.40;99.90
57664;DHT22;43493;53.098;6.064;2024-02-28T06:15:34;4.40;99.90
57664;DHT22;43493;53.098;6.064;2024-02-28T06:18:00;4.40;99.90
57664;DHT22;43493;53.098;6.064;2024-02-28T06:20:26;4.40;99.90
57664;DHT22;43493;53.098;6.064;2024-02-28T06:22:52;4.50;99.90
57664;DHT22;43493;53.098;6.064;2024-02-28T06:25:18;4.40;99.90
57664;DHT22;43493;53.098;6.064;2024-02-28T06:27:45;4.50;99.90
57664;DHT22;43493;53.098;6.064;2024-02-28T06:30:15;4.50;99.90
57664;DHT22;43493;53.098;6.064;2024-02-28T06:32:42;4.50;99.90
57664;DHT22;43493;53.098;6.064;2024-02-28T06:35:08;4.50;99.90
57664;DHT22;43493;53.098;6.064;2024-02-28T06:37:35;4.50;99.90
57664;DHT22;43493;53.098;6.064;2024-02-28T06:40:01;4.50;99.90
57664;DHT22;43493;53.098;6.064;2024-02-28T06:42:27;4.60;99.90
57664;DHT22;43493;53.098;6.064;2024-02-28T06:44:54;4.50;99.90
57664;DHT22;43493;53.098;6.064;2024-02-28T06:47:19;4.50;99.90
57664;DHT22;43493;53.098;6.064;2024-02-28T06:49:45;4.50;99.90
57664;DHT22;43493;53.098;6.064;2024-02-28T06:52:12;4.50;99.90
57664;DHT22;43493;53.098;6.064;2024-02-28T06:54:37;4.50;99.90
57664;DHT22;43493;53.098;6.064;2024-02-28T06:57:03;4.60;99.90
57664;DHT22;43493;53.098;6.064;2024-02-28T06:59:29;4.60;99.90
57664;DHT22;43493;53.098;6.064;2024-02-28T07:01:55;4.60;99.90
57664;DHT22;43493;53.098;6.064;2024-02-28T07:04:20;4.60;99.90
57664;DHT22;43493;53.098;6.064;2024-02-28T07:06:46;4.60;99.90
57664;DHT22;43493;53.098;6.064;2024-02-28T07:09:12;4.60;99.90
57664;DHT22;43493;53.098;6.064;2024-02-28T07:11:38;4.60;99.90
57664;DHT22;43493;53.098;6.064;2024-02-28T07:14:04;4.60;99.90
57664;DHT22;43493;53.098;6.064;2024-02-28T07:16:30;4.60;99.90
57664;DHT22;43493;53.098;6.064;2024-02-28T07:18:58;4.70;99.90
57664;DHT22;43493;53.098;6.064;2024-02-28T07:21:23;4.60;99.90
57664;DHT22;43493;53.098;6.064;2024-02-28T07:23:49;4.70;99.90
57664;DHT22;43493;53.098;6.064;2024-02-28T07:26:18;4.70;99.90
57664;DHT22;43493;53.098;6.064;2024-02-28T07:28:44;4.70;99.90
57664;DHT22;43493;53.098;6.064;2024-02-28T07:31:18;4.70;99.90
57664;DHT22;43493;53.098;6.064;2024-02-28T07:33:45;4.70;99.90
57664;DHT22;43493;53.098;6.064;2024-02-28T07:36:11;4.70;99.90
57664;DHT22;43493;53.098;6.064;2024-02-28T07:38:37;4.80;99.90
57664;DHT22;43493;53.098;6.064;2024-02-28T07:41:03;4.70;99.90
57664;DHT22;43493;53.098;6.064;2024-02-28T07:43:29;4.80;99.90
57664;DHT22;43493;53.098;6.064;2024-02-28T07:45:58;4.80;99.90
57664;DHT22;43493;53.098;6.064;2024-02-28T07:48:24;4.80;99.90
57664;DHT22;43493;53.098;6.064;2024-02-28T07:50:50;4.80;99.90
57664;DHT22;43493;53.098;6.064;2024-02-28T07:53:16;4.80;99.90
57664;DHT22;43493;53.098;6.064;2024-02-28T07:55:42;4.90;99.90
57664;DHT22;43493;53.098;6.064;2024-02-28T07:58:08;4.90;99.90
57664;DHT22;43493;53.098;6.064;2024-02-28T08:00:35;4.90;99.90
57664;DHT22;43493;53.098;6.064;2024-02-28T08:03:01;5.00;99.90
57664;DHT22;43493;53.098;6.064;2024-02-28T08:05:26;5.00;99.90
57664;DHT22;43493;53.098;6.064;2024-02-28T08:07:52;5.00;99.90
57664;DHT22;43493;53.098;6.064;2024-02-28T08:10:18;5.10;99.90
57664;DHT22;43493;53.098;6.064;2024-02-28T08:12:44;5.20;99.90
57664;DHT22;43493;53.098;6.064;2024-02-28T08:15:10;5.20;99.90
57664;DHT22;43493;53.098;6.064;2024-02-28T08:17:36;5.30;99.90
57664;DHT22;43493;53.098;6.064;2024-02-28T08:20:03;5.30;99.90
57664;DHT22;43493;53.098;6.064;2024-02-28T08:22:31;5.50;99.90
57664;DHT22;43493;53.098;6.064;2024-02-28T08:24:56;5.50;99.90
57664;DHT22;43493;53.098;6.064;2024-02-28T08:27:22;5.60;99.90
57664;DHT22;43493;53.098;6.064;2024-02-28T08:29:49;5.60;99.90
57664;DHT22;43493;53.098;6.064;2024-02-28T08:32:16;5.70;99.90
57664;DHT22;43493;53.098;6.064;2024-02-28T08:34:45;5.70;99.90
57664;DHT22;43493;53.098;6.064;2024-02-28T08:37:12;5.80;99.90
57664;DHT22;43493;53.098;6.064;2024-02-28T08:39:38;5.80;99.90
57664;DHT22;43493;53.098;6.064;2024-02-28T08:42:04;5.80;99.90
57664;DHT22;43493;53.098;6.064;2024-02-28T08:44:30;5.90;99.90
57664;DHT22;43493;53.098;6.064;2024-02-28T08:46:56;5.90;99.90
57664;DHT22;43493;53.098;6.064;2024-02-28T08:49:22;6.00;99.90
57664;DHT22;43493;53.098;6.064;2024-02-28T08:51:48;6.00;99.90
57664;DHT22;43493;53.098;6.064;2024-02-28T08:54:13;6.10;99.90
57664;DHT22;43493;53.098;6.064;2024-02-28T08:56:39;6.10;99.90
57664;DHT22;43493;53.098;6.064;2024-02-28T08:59:05;6.10;99.90
57664;DHT22;43493;53.098;6.064;2024-02-28T09:01:31;6.20;99.90
57664;DHT22;43493;53.098;6.064;2024-02-28T09:03:56;6.20;99.90
57664;DHT22;43493;53.098;6.064;2024-02-28T09:06:25;6.30;99.90
57664;DHT22;43493;53.098;6.064;2024-02-28T09:08:50;6.30;99.90
57664;DHT22;43493;53.098;6.064;2024-02-28T09:11:16;6.40;99.90
57664;DHT22;43493;53.098;6.064;2024-02-28T09:13:42;6.40;99.90
57664;DHT22;43493;53.098;6.064;2024-02-28T09:16:07;6.40;99.90
57664;DHT22;43493;53.098;6.064;2024-02-28T09:18:33;6.30;99.90
57664;DHT22;43493;53.098;6.064;2024-02-28T09:20:59;6.40;99.90
57664;DHT22;43493;53.098;6.064;2024-02-28T09:23:25;6.40;99.90
57664;DHT22;43493;53.098;6.064;2024-02-28T09:25:50;6.40;99.90
57664;DHT22;43493;53.098;6.064;2024-02-28T09:28:16;6.40;99.90
57664;DHT22;43493;53.098;6.064;2024-02-28T09:30:42;6.40;99.90
57664;DHT22;43493;53.098;6.064;2024-02-28T09:33:09;6.40;99.90
57664;DHT22;43493;53.098;6.064;2024-02-28T09:35:35;6.40;99.90
57664;DHT22;43493;53.098;6.064;2024-02-28T09:38:02;6.50;99.90
57664;DHT22;43493;53.098;6.064;2024-02-28T09:40:28;6.50;99.90
57664;DHT22;43493;53.098;6.064;2024-02-28T09:43:02;6.50;99.90
57664;DHT22;43493;53.098;6.064;2024-02-28T09:45:30;6.50;99.90
57664;DHT22;43493;53.098;6.064;2024-02-28T09:47:59;6.40;99.90
57664;DHT22;43493;53.098;6.064;2024-02-28T09:50:29;6.40;99.90
57664;DHT22;43493;53.098;6.064;2024-02-28T09:52:56;6.40;99.90
57664;DHT22;43493;53.098;6.064;2024-02-28T09:55:22;6.40;99.90
57664;DHT22;43493;53.098;6.064;2024-02-28T09:57:48;6.30;99.90
57664;DHT22;43493;53.098;6.064;2024-02-28T10:00:17;6.40;99.90
57664;DHT22;43493;53.098;6.064;2024-02-28T10:02:47;6.40;99.90
57664;DHT22;43493;53.098;6.064;2024-02-28T10:05:14;6.40;99.90
57664;DHT22;43493;53.098;6.064;2024-02-28T10:07:40;6.40;99.90
57664;DHT22;43493;53.098;6.064;2024-02-28T10:10:06;6.40;99.90
57664;DHT22;43493;53.098;6.064;2024-02-28T10:12:34;6.40;99.90
57664;DHT22;43493;53.098;6.064;2024-02-28T10:15:03;6.40;99.90
57664;DHT22;43493;53.098;6.064;2024-02-28T10:17:28;6.40;99.90
57664;DHT22;43493;53.098;6.064;2024-02-28T10:19:54;6.50;99.90
57664;DHT22;43493;53.098;6.064;2024-02-28T10:22:20;6.50;99.90
57664;DHT22;43493;53.098;6.064;2024-02-28T10:24:46;6.60;99.90
57664;DHT22;43493;53.098;6.064;2024-02-28T10:27:16;6.60;99.90
57664;DHT22;43493;53.098;6.064;2024-02-28T10:29:41;6.70;99.90
57664;DHT22;43493;53.098;6.064;2024-02-28T10:32:09;6.70;99.90
57664;DHT22;43493;53.098;6.064;2024-02-28T10:34:37;6.80;99.90
57664;DHT22;43493;53.098;6.064;2024-02-28T10:37:05;6.90;99.90
57664;DHT22;43493;53.098;6.064;2024-02-28T10:39:31;7.00;99.90
57664;DHT22;43493;53.098;6.064;2024-02-28T10:41:59;7.00;99.90
57664;DHT22;43493;53.098;6.064;2024-02-28T10:44:26;7.10;99.90
57664;DHT22;43493;53.098;6.064;2024-02-28T10:46:53;7.20;99.90
57664;DHT22;43493;53.098;6.064;2024-02-28T10:49:19;7.20;99.90
57664;DHT22;43493;53.098;6.064;2024-02-28T10:51:46;7.40;99.90
57664;DHT22;43493;53.098;6.064;2024-02-28T10:54:14;7.50;99.90
57664;DHT22;43493;53.098;6.064;2024-02-28T10:56:41;7.50;99.90
57664;DHT22;43493;53.098;6.064;2024-02-28T10:59:10;7.60;99.90
57664;DHT22;43493;53.098;6.064;2024-02-28T11:01:41;7.60;99.90
57664;DHT22;43493;53.098;6.064;2024-02-28T11:04:10;7.70;99.90
57664;DHT22;43493;53.098;6.064;2024-02-28T11:06:48;7.70;99.90
57664;DHT22;43493;53.098;6.064;2024-02-28T11:09:22;7.80;99.90
57664;DHT22;43493;53.098;6.064;2024-02-28T11:11:49;7.80;99.90
57664;DHT22;43493;53.098;6.064;2024-02-28T11:14:16;7.80;99.90
57664;DHT22;43493;53.098;6.064;2024-02-28T11:16:42;7.80;99.90
57664;DHT22;43493;53.098;6.064;2024-02-28T11:19:19;7.80;99.90
57664;DHT22;43493;53.098;6.064;2024-02-28T11:21:54;7.80;99.90
57664;DHT22;43493;53.098;6.064;2024-02-28T11:24:24;7.80;99.90
57664;DHT22;43493;53.098;6.064;2024-02-28T11:26:52;7.80;99.90
57664;DHT22;43493;53.098;6.064;2024-02-28T11:29:25;7.80;99.90
57664;DHT22;43493;53.098;6.064;2024-02-28T11:31:51;7.70;99.90
57664;DHT22;43493;53.098;6.064;2024-02-28T11:34:17;7.70;99.90
57664;DHT22;43493;53.098;6.064;2024-02-28T11:36:43;7.70;99.90
57664;DHT22;43493;53.098;6.064;2024-02-28T11:39:13;7.70;99.90
57664;DHT22;43493;53.098;6.064;2024-02-28T11:41:39;7.70;99.90
57664;DHT22;43493;53.098;6.064;2024-02-28T11:44:05;7.60;99.90
57664;DHT22;43493;53.098;6.064;2024-02-28T11:46:31;7.70;99.90
57664;DHT22;43493;53.098;6.064;2024-02-28T11:48:57;7.60;99.90
57664;DHT22;43493;53.098;6.064;2024-02-28T11:51:23;7.70;99.90
57664;DHT22;43493;53.098;6.064;2024-02-28T11:53:49;7.60;99.90
57664;DHT22;43493;53.098;6.064;2024-02-28T11:56:14;7.60;99.90
57664;DHT22;43493;53.098;6.064;2024-02-28T11:58:53;7.60;99.90
57664;DHT22;43493;53.098;6.064;2024-02-28T12:01:38;7.70;99.90
57664;DHT22;43493;53.098;6.064;2024-02-28T12:04:04;7.70;99.90
57664;DHT22;43493;53.098;6.064;2024-02-28T12:06:34;7.70;99.90
57664;DHT22;43493;53.098;6.064;2024-02-28T12:09:05;7.70;99.90
57664;DHT22;43493;53.098;6.064;2024-02-28T12:11:32;7.80;99.90
57664;DHT22;43493;53.098;6.064;2024-02-28T12:13:58;7.80;99.90
57664;DHT22;43493;53.098;6.064;2024-02-28T12:16:25;7.80;99.90
57664;DHT22;43493;53.098;6.064;2024-02-28T12:18:51;7.90;99.90
57664;DHT22;43493;53.098;6.064;2024-02-28T12:21:18;8.00;99.90
57664;DHT22;43493;53.098;6.064;2024-02-28T12:23:44;8.00;99.90
57664;DHT22;43493;53.098;6.064;2024-02-28T12:26:10;8.10;99.90
57664;DHT22;43493;53.098;6.064;2024-02-28T12:28:35;8.10;99.90
57664;DHT22;43493;53.098;6.064;2024-02-28T12:31:01;8.20;99.90
57664;DHT22;43493;53.098;6.064;2024-02-28T12:33:27;8.10;99.90
57664;DHT22;43493;53.098;6.064;2024-02-28T12:35:52;8.10;99.90
57664;DHT22;43493;53.098;6.064;2024-02-28T12:38:18;8.20;99.90
57664;DHT22;43493;53.098;6.064;2024-02-28T12:40:45;8.20;99.90
57664;DHT22;43493;53.098;6.064;2024-02-28T12:43:11;8.10;99.90
57664;DHT22;43493;53.098;6.064;2024-02-28T12:45:36;8.10;99.90
57664;DHT22;43493;53.098;6.064;2024-02-28T12:48:05;8.10;99.90
57664;DHT22;43493;53.098;6.064;2024-02-28T12:50:31;8.10;99.90
57664;DHT22;43493;53.098;6.064;2024-02-28T12:52:59;8.10;99.90
57664;DHT22;43493;53.098;6.064;2024-02-28T12:55:25;8.10;99.90
57664;DHT22;43493;53.098;6.064;2024-02-28T12:57:51;8.10;99.90
57664;DHT22;43493;53.098;6.064;2024-02-28T13:00:17;8.20;99.90
57664;DHT22;43493;53.098;6.064;2024-02-28T13:02:44;8.20;99.90
57664;DHT22;43493;53.098;6.064;2024-02-28T13:05:10;8.20;99.90
57664;DHT22;43493;53.098;6.064;2024-02-28T13:07:36;8.20;99.90
57664;DHT22;43493;53.098;6.064;2024-02-28T13:10:02;8.30;99.90
57664;DHT22;43493;53.098;6.064;2024-02-28T13:12:30;8.30;99.90
57664;DHT22;43493;53.098;6.064;2024-02-28T13:14:58;8.30;99.90
57664;DHT22;43493;53.098;6.064;2024-02-28T13:17:23;8.40;99.90
57664;DHT22;43493;53.098;6.064;2024-02-28T13:19:49;8.40;99.90
57664;DHT22;43493;53.098;6.064;2024-02-28T13:22:15;8.40;99.90
57664;DHT22;43493;53.098;6.064;2024-02-28T13:24:40;8.40;99.90
57664;DHT22;43493;53.098;6.064;2024-02-28T13:27:06;8.40;99.90
57664;DHT22;43493;53.098;6.064;2024-02-28T13:29:33;8.40;99.90
57664;DHT22;43493;53.098;6.064;2024-02-28T13:31:59;8.40;99.90
57664;DHT22;43493;53.098;6.064;2024-02-28T13:34:24;8.40;99.90
57664;DHT22;43493;53.098;6.064;2024-02-28T13:36:50;8.40;99.90
57664;DHT22;43493;53.098;6.064;2024-02-28T13:39:17;8.40;99.90
57664;DHT22;43493;53.098;6.064;2024-02-28T13:41:42;8.50;99.90
57664;DHT22;43493;53.098;6.064;2024-02-28T13:44:08;8.50;99.90
57664;DHT22;43493;53.098;6.064;2024-02-28T13:46:36;8.50;99.90
57664;DHT22;43493;53.098;6.064;2024-02-28T13:49:05;8.50;99.90
57664;DHT22;43493;53.098;6.064;2024-02-28T13:51:30;8.50;99.90
57664;DHT22;43493;53.098;6.064;2024-02-28T13:53:56;8.50;99.90
57664;DHT22;43493;53.098;6.064;2024-02-28T13:56:22;8.50;99.90
57664;DHT22;43493;53.098;6.064;2024-02-28T13:58:47;8.50;99.90
57664;DHT22;43493;53.098;6.064;2024-02-28T14:01:13;8.50;99.90
57664;DHT22;43493;53.098;6.064;2024-02-28T14:03:39;8.50;99.90
57664;DHT22;43493;53.098;6.064;2024-02-28T14:06:05;8.50;99.90
57664;DHT22;43493;53.098;6.064;2024-02-28T14:08:31;8.50;99.90
57664;DHT22;43493;53.098;6.064;2024-02-28T14:10:57;8.50;99.90
57664;DHT22;43493;53.098;6.064;2024-02-28T14:13:24;8.50;99.90
57664;DHT22;43493;53.098;6.064;2024-02-28T14:15:50;8.50;99.90
57664;DHT22;43493;53.098;6.064;2024-02-28T14:18:16;8.50;99.90
57664;DHT22;43493;53.098;6.064;2024-02-28T14:20:43;8.60;99.90
57664;DHT22;43493;53.098;6.064;2024-02-28T14:23:09;8.60;99.90
57664;DHT22;43493;53.098;6.064;2024-02-28T14:25:35;8.70;99.90
57664;DHT22;43493;53.098;6.064;2024-02-28T14:28:00;8.70;99.90
57664;DHT22;43493;53.098;6.064;2024-02-28T14:30:26;8.70;99.90
57664;DHT22;43493;53.098;6.064;2024-02-28T14:32:52;8.70;99.90
57664;DHT22;43493;53.098;6.064;2024-02-28T14:35:18;8.70;99.90
57664;DHT22;43493;53.098;6.064;2024-02-28T14:37:43;8.70;99.90
57664;DHT22;43493;53.098;6.064;2024-02-28T14:40:10;8.70;99.90
57664;DHT22;43493;53.098;6.064;2024-02-28T14:42:40;8.70;99.90
57664;DHT22;43493;53.098;6.064;2024-02-28T14:45:10;9.00;99.90
57664;DHT22;43493;53.098;6.064;2024-02-28T14:47:39;8.80;99.90
57664;DHT22;43493;53.098;6.064;2024-02-28T14:50:06;8.90;99.90
57664;DHT22;43493;53.098;6.064;2024-02-28T14:52:39;8.90;99.90
57664;DHT22;43493;53.098;6.064;2024-02-28T14:55:08;8.80;99.90
57664;DHT22;43493;53.098;6.064;2024-02-28T15:04:59;8.60;99.90
57664;DHT22;43493;53.098;6.064;2024-02-28T15:07:25;8.60;99.90
57664;DHT22;43493;53.098;6.064;2024-02-28T15:09:51;8.60;99.90
57664;DHT22;43493;53.098;6.064;2024-02-28T15:12:17;8.60;99.90
57664;DHT22;43493;53.098;6.064;2024-02-28T15:14:43;8.60;99.90
57664;DHT22;43493;53.098;6.064;2024-02-28T15:17:09;8.60;99.90
57664;DHT22;43493;53.098;6.064;2024-02-28T15:19:34;8.60;99.90
57664;DHT22;43493;53.098;6.064;2024-02-28T15:22:00;8.50;99.90
57664;DHT22;43493;53.098;6.064;2024-02-28T15:24:26;8.50;99.90
57664;DHT22;43493;53.098;6.064;2024-02-28T15:26:52;8.50;99.90
57664;DHT22;43493;53.098;6.064;2024-02-28T15:29:19;8.50;99.90
57664;DHT22;43493;53.098;6.064;2024-02-28T15:31:45;8.50;99.90
57664;DHT22;43493;53.098;6.064;2024-02-28T15:34:11;8.50;99.90
57664;DHT22;43493;53.098;6.064;2024-02-28T15:36:36;8.50;99.90
57664;DHT22;43493;53.098;6.064;2024-02-28T15:39:03;8.50;99.90
57664;DHT22;43493;53.098;6.064;2024-02-28T15:41:29;8.50;99.90
57664;DHT22;43493;53.098;6.064;2024-02-28T15:43:55;8.50;99.90
57664;DHT22;43493;53.098;6.064;2024-02-28T15:46:21;8.50;99.90
57664;DHT22;43493;53.098;6.064;2024-02-28T15:48:47;8.50;99.90